Time;durP1;ratioP1;P1;durP2;ratioP2;P2;SDS_P1;SDS_P2;PMS_P1;PMS_P2;Temp;Humidity;BMP_temperature;BMP_pressure;BME280_temperature;BME280_humidity;BME280_pressure;Samples;Min_cycle;Max_cycle;Signal;HPM_P1;HPM_P2
2022/10/15 00:00:21;;;;;;;3.03;2.83;;;;;;;;;;5052226;28;20583;-86
2022/10/15 00:02:49;;;;;;;3.40;3.20;;;;;;;;;;5052753;28;20281;-86
2022/10/15 00:05:17;;;;;;;4.28;3.90;;;;;;;;;;5052214;28;20313;-86
2022/10/15 00:07:44;;;;;;;2.92;2.72;;;;;;;;;;5055606;28;20202;-86
2022/10/15 00:10:13;;;;;;;2.45;2.20;;;;;;;;;;5055595;28;20723;-86
2022/10/15 00:12:42;;;;;;;4.25;3.95;;;;;;;;;;5056035;28;20356;-86
2022/10/15 00:15:11;;;;;;;5.38;4.90;;;;;;;;;;5056012;28;20592;-86
2022/10/15 00:17:39;;;;;;;5.75;5.15;;;;;;;;;;5055953;28;20205;-85
2022/10/15 00:20:10;;;;;;;5.05;4.65;;;;;;;;;;5055561;28;20296;-85
2022/10/15 00:22:38;;;;;;;4.35;4.05;;;;;;;;;;5056352;28;20293;-86
2022/10/15 00:25:07;;;;;;;3.83;3.53;;;;;;;;;;5056302;28;20303;-86
2022/10/15 00:27:36;;;;;;;4.00;3.70;;;;;;;;;;5055972;28;20284;-87
2022/10/15 00:30:06;;;;;;;3.08;2.88;;;;;;;;;;5055940;28;20658;-86
2022/10/15 00:32:33;;;;;;;3.60;3.30;;;;;;;;;;5055758;28;20293;-85
2022/10/15 00:35:01;;;;;;;3.40;3.17;;;;;;;;;;5055620;28;20225;-85
2022/10/15 00:37:28;;;;;;;4.47;4.18;;;;;;;;;;5055675;28;20700;-86
2022/10/15 00:39:55;;;;;;;4.90;4.50;;;;;;;;;;5055684;28;20231;-85
2022/10/15 00:42:23;;;;;;;4.45;4.13;;;;;;;;;;5055334;28;20201;-86
2022/10/15 00:44:56;;;;;;;4.20;3.88;;;;;;;;;;5055580;28;20300;-85
2022/10/15 00:47:33;;;;;;;4.47;4.18;;;;;;;;;;5055924;28;20569;-86
2022/10/15 00:50:05;;;;;;;3.88;3.58;;;;;;;;;;5055374;28;20197;-86
2022/10/15 00:52:39;;;;;;;4.97;4.57;;;;;;;;;;5055273;28;20739;-85
2022/10/15 00:55:12;;;;;;;3.97;3.67;;;;;;;;;;5055052;28;20220;-86
2022/10/15 00:57:41;;;;;;;4.07;3.67;;;;;;;;;;5073962;28;20205;-86
2022/10/15 01:00:14;;;;;;;3.13;2.85;;;;;;;;;;5075520;28;20205;-85
2022/10/15 01:02:41;;;;;;;5.15;4.75;;;;;;;;;;5075790;28;20193;-85
2022/10/15 01:05:09;;;;;;;5.38;4.97;;;;;;;;;;5074175;28;20221;-86
2022/10/15 01:07:37;;;;;;;4.03;3.72;;;;;;;;;;5055804;28;20205;-85
2022/10/15 01:10:05;;;;;;;3.83;3.53;;;;;;;;;;5055654;28;20205;-85
2022/10/15 01:12:51;;;;;;;4.38;3.97;;;;;;;;;;5057549;28;20291;-85
2022/10/15 01:15:25;;;;;;;3.70;3.40;;;;;;;;;;5057266;28;20225;-85
2022/10/15 01:17:57;;;;;;;4.15;3.85;;;;;;;;;;5056645;28;20650;-85
2022/10/15 01:20:58;;;;;;;2.65;2.45;;;;;;;;;;5056500;28;20582;-85
2022/10/15 01:23:46;;;;;;;2.45;2.28;;;;;;;;;;5055700;28;20200;-85
2022/10/15 01:26:55;;;;;;;2.53;2.33;;;;;;;;;;5054989;28;20193;-85
2022/10/15 01:29:52;;;;;;;2.85;2.65;;;;;;;;;;5030054;28;20205;-84
2022/10/15 01:32:25;;;;;;;2.10;2.00;;;;;;;;;;5055089;28;20225;-85
2022/10/15 01:34:59;;;;;;;2.60;2.40;;;;;;;;;;5055246;28;20233;-85
2022/10/15 01:37:34;;;;;;;1.98;1.88;;;;;;;;;;5055436;28;20205;-85
2022/10/15 01:40:08;;;;;;;2.75;2.15;;;;;;;;;;5055061;28;20641;-84
2022/10/15 01:42:41;;;;;;;2.10;1.98;;;;;;;;;;5055009;28;20280;-84
2022/10/15 01:45:12;;;;;;;2.05;1.95;;;;;;;;;;5054289;28;20217;-85
2022/10/15 01:47:46;;;;;;;2.70;2.50;;;;;;;;;;5054876;28;20283;-84
2022/10/15 01:50:15;;;;;;;3.28;2.97;;;;;;;;;;5054779;28;20209;-85
2022/10/15 01:52:43;;;;;;;1.73;1.63;;;;;;;;;;5055170;28;20224;-85
2022/10/15 01:55:14;;;;;;;1.35;1.25;;;;;;;;;;5054906;28;20217;-85
2022/10/15 01:57:44;;;;;;;1.13;1.13;;;;;;;;;;5055060;28;20193;-84
2022/10/15 02:00:12;;;;;;;1.00;1.00;;;;;;;;;;5054629;28;20208;-85
2022/10/15 02:02:41;;;;;;;1.20;1.10;;;;;;;;;;5055001;28;20288;-85
2022/10/15 02:05:12;;;;;;;1.15;1.15;;;;;;;;;;5054164;28;20217;-85
2022/10/15 02:07:47;;;;;;;0.88;0.88;;;;;;;;;;5054357;28;20284;-84
2022/10/15 02:10:21;;;;;;;1.08;1.08;;;;;;;;;;5054167;28;20240;-84
2022/10/15 02:13:00;;;;;;;1.13;1.13;;;;;;;;;;5054544;28;20211;-85
2022/10/15 02:15:34;;;;;;;1.30;1.20;;;;;;;;;;5054347;28;20600;-84
2022/10/15 02:18:10;;;;;;;1.45;1.35;;;;;;;;;;5053411;28;20662;-85
2022/10/15 02:20:43;;;;;;;1.80;1.70;;;;;;;;;;5054682;28;20209;-85
2022/10/15 02:23:15;;;;;;;1.65;1.55;;;;;;;;;;5054109;28;20288;-84
2022/10/15 02:25:43;;;;;;;1.70;1.60;;;;;;;;;;5053968;28;20592;-85
2022/10/15 02:28:12;;;;;;;1.65;1.58;;;;;;;;;;5053621;28;20743;-85
2022/10/15 02:30:42;;;;;;;2.17;2.00;;;;;;;;;;5053626;28;20300;-86
2022/10/15 02:33:11;;;;;;;1.70;1.60;;;;;;;;;;5054022;28;20614;-84
2022/10/15 02:35:39;;;;;;;1.40;1.40;;;;;;;;;;5054256;28;20239;-84
2022/10/15 02:38:08;;;;;;;1.42;1.33;;;;;;;;;;5053780;28;20288;-84
2022/10/15 02:40:36;;;;;;;1.60;1.50;;;;;;;;;;5053985;28;20205;-85
2022/10/15 02:43:06;;;;;;;2.25;2.05;;;;;;;;;;5054028;28;20212;-84
2022/10/15 02:45:34;;;;;;;1.38;1.30;;;;;;;;;;5054039;28;20858;-85
2022/10/15 02:48:01;;;;;;;1.92;1.83;;;;;;;;;;5053593;28;20893;-85
2022/10/15 02:50:30;;;;;;;2.63;2.42;;;;;;;;;;5053087;28;20208;-84
2022/10/15 02:52:57;;;;;;;2.03;1.92;;;;;;;;;;5053823;28;20215;-85
2022/10/15 02:55:25;;;;;;;2.42;2.22;;;;;;;;;;5053406;28;20233;-85
2022/10/15 02:57:52;;;;;;;1.70;1.60;;;;;;;;;;5053805;28;20197;-85
2022/10/15 03:00:20;;;;;;;2.58;2.38;;;;;;;;;;5053036;28;20304;-85
2022/10/15 03:02:47;;;;;;;1.90;1.80;;;;;;;;;;5053071;28;20292;-85
2022/10/15 03:05:15;;;;;;;2.22;2.05;;;;;;;;;;5053420;28;20217;-85
2022/10/15 03:07:44;;;;;;;1.70;1.60;;;;;;;;;;5053569;28;20212;-85
2022/10/15 03:10:11;;;;;;;3.65;3.35;;;;;;;;;;5052835;28;20233;-85
2022/10/15 03:12:39;;;;;;;6.45;4.82;;;;;;;;;;5053087;28;20201;-85
2022/10/15 03:15:08;;;;;;;13.38;8.63;;;;;;;;;;5053253;28;20229;-85
2022/10/15 03:17:36;;;;;;;19.40;9.55;;;;;;;;;;5053086;28;20208;-84
2022/10/15 03:20:04;;;;;;;12.82;7.65;;;;;;;;;;5053155;28;20285;-85
2022/10/15 03:22:31;;;;;;;13.90;9.88;;;;;;;;;;5053255;28;20209;-85
2022/10/15 03:25:00;;;;;;;14.05;8.13;;;;;;;;;;5053055;28;20316;-86
2022/10/15 03:27:28;;;;;;;14.05;9.15;;;;;;;;;;5053217;28;20236;-85
2022/10/15 03:29:55;;;;;;;15.00;8.93;;;;;;;;;;5053265;28;20651;-84
2022/10/15 03:32:23;;;;;;;10.18;5.95;;;;;;;;;;5053502;28;20617;-85
2022/10/15 03:34:50;;;;;;;5.00;3.53;;;;;;;;;;5053473;28;20225;-84
2022/10/15 03:37:18;;;;;;;4.53;4.05;;;;;;;;;;5053148;28;20244;-85
2022/10/15 03:39:45;;;;;;;3.83;2.80;;;;;;;;;;5053136;28;20288;-85
2022/10/15 03:42:14;;;;;;;2.60;2.40;;;;;;;;;;5057563;28;20201;-85
2022/10/15 03:44:42;;;;;;;1.95;1.85;;;;;;;;;;5057039;28;20221;-84
2022/10/15 03:47:09;;;;;;;2.25;2.05;;;;;;;;;;5057454;28;20292;-85
2022/10/15 03:49:37;;;;;;;2.28;2.03;;;;;;;;;;5057716;28;20232;-85
2022/10/15 03:52:04;;;;;;;1.42;1.38;;;;;;;;;;5057356;28;20296;-84
2022/10/15 03:54:32;;;;;;;1.52;1.42;;;;;;;;;;5057308;28;20221;-85
2022/10/15 03:56:59;;;;;;;1.70;1.60;;;;;;;;;;5056860;28;20221;-85
2022/10/15 03:59:28;;;;;;;1.90;1.80;;;;;;;;;;5056903;28;20284;-85
2022/10/15 04:01:56;;;;;;;1.20;1.10;;;;;;;;;;5057044;28;20304;-85
2022/10/15 04:04:23;;;;;;;5.55;3.28;;;;;;;;;;5056785;28;20221;-85
2022/10/15 04:06:51;;;;;;;5.15;4.32;;;;;;;;;;5057038;28;20292;-85
2022/10/15 04:09:18;;;;;;;4.00;3.40;;;;;;;;;;5056478;28;20670;-84
2022/10/15 04:11:46;;;;;;;2.83;2.55;;;;;;;;;;5056531;28;20296;-85
2022/10/15 04:14:13;;;;;;;2.13;2.03;;;;;;;;;;5056609;28;20312;-85
2022/10/15 04:16:42;;;;;;;1.73;1.63;;;;;;;;;;5056516;28;20249;-85
2022/10/15 04:19:09;;;;;;;2.10;2.00;;;;;;;;;;5056203;28;20208;-85
2022/10/15 04:21:37;;;;;;;1.70;1.60;;;;;;;;;;5056339;28;20213;-85
2022/10/15 04:24:05;;;;;;;2.17;2.08;;;;;;;;;;5056525;28;20232;-84
2022/10/15 04:26:33;;;;;;;2.55;2.13;;;;;;;;;;5056328;28;20204;-85
2022/10/15 04:29:00;;;;;;;3.00;2.30;;;;;;;;;;5056219;28;20288;-85
2022/10/15 04:31:28;;;;;;;2.42;2.22;;;;;;;;;;5056240;28;20194;-84
2022/10/15 04:33:56;;;;;;;2.53;2.33;;;;;;;;;;5056307;28;20228;-84
2022/10/15 04:36:24;;;;;;;2.58;2.38;;;;;;;;;;5056375;28;20297;-85
2022/10/15 04:38:52;;;;;;;2.33;2.13;;;;;;;;;;5057013;28;20277;-84
2022/10/15 04:41:19;;;;;;;2.15;1.98;;;;;;;;;;5056803;28;20567;-85
2022/10/15 04:43:47;;;;;;;2.08;1.98;;;;;;;;;;5056704;28;20225;-85
2022/10/15 04:46:14;;;;;;;1.40;1.30;;;;;;;;;;5056177;28;20197;-85
2022/10/15 04:48:42;;;;;;;1.23;1.23;;;;;;;;;;5056031;28;20641;-84
2022/10/15 04:51:14;;;;;;;1.63;1.52;;;;;;;;;;5055309;28;20284;-85
2022/10/15 04:53:42;;;;;;;1.40;1.30;;;;;;;;;;5055483;28;20648;-85
2022/10/15 04:56:14;;;;;;;1.58;1.48;;;;;;;;;;5055804;28;20228;-85
2022/10/15 04:58:42;;;;;;;1.67;1.58;;;;;;;;;;5055355;28;20198;-84
2022/10/15 05:01:12;;;;;;;2.05;1.83;;;;;;;;;;5055556;28;20288;-85
2022/10/15 05:03:42;;;;;;;1.67;1.58;;;;;;;;;;5055614;28;20248;-85
2022/10/15 05:06:13;;;;;;;2.17;1.98;;;;;;;;;;5055978;28;20197;-86
2022/10/15 05:08:42;;;;;;;2.85;2.47;;;;;;;;;;5057046;28;20196;-85
2022/10/15 05:11:11;;;;;;;2.30;2.10;;;;;;;;;;5057173;28;20575;-85
2022/10/15 05:13:39;;;;;;;2.25;2.13;;;;;;;;;;5057418;28;20297;-85
2022/10/15 05:16:12;;;;;;;2.00;1.90;;;;;;;;;;5057157;28;20229;-85
2022/10/15 05:18:41;;;;;;;1.95;1.85;;;;;;;;;;5058101;28;20224;-85
2022/10/15 05:21:10;;;;;;;1.65;1.55;;;;;;;;;;5057517;28;20247;-86
2022/10/15 05:23:38;;;;;;;1.38;1.27;;;;;;;;;;5057628;28;20281;-85
2022/10/15 05:26:09;;;;;;;1.80;1.70;;;;;;;;;;5057739;28;20226;-85
2022/10/15 05:28:36;;;;;;;1.80;1.70;;;;;;;;;;5057427;28;20607;-85
2022/10/15 05:31:06;;;;;;;1.85;1.70;;;;;;;;;;5057770;28;20260;-85
2022/10/15 05:33:33;;;;;;;1.60;1.50;;;;;;;;;;5057215;28;20204;-85
2022/10/15 05:36:12;;;;;;;1.30;1.30;;;;;;;;;;5057024;28;20717;-85
2022/10/15 05:38:39;;;;;;;1.48;1.38;;;;;;;;;;5056677;28;20204;-85
2022/10/15 05:41:07;;;;;;;1.98;1.88;;;;;;;;;;5056665;28;20233;-83
2022/10/15 05:43:35;;;;;;;1.63;1.52;;;;;;;;;;5056501;28;20236;-83
2022/10/15 05:46:02;;;;;;;1.55;1.45;;;;;;;;;;5058888;28;20276;-83
2022/10/15 05:48:30;;;;;;;1.73;1.63;;;;;;;;;;5058719;28;20343;-84
2022/10/15 05:51:02;;;;;;;1.50;1.40;;;;;;;;;;5059142;28;20293;-83
2022/10/15 05:53:31;;;;;;;1.25;1.23;;;;;;;;;;5060538;28;20213;-83
2022/10/15 05:55:58;;;;;;;2.13;2.00;;;;;;;;;;5058795;28;20230;-83
2022/10/15 05:58:28;;;;;;;1.70;1.60;;;;;;;;;;5057337;28;20284;-83
2022/10/15 06:00:56;;;;;;;2.08;1.95;;;;;;;;;;5057959;28;20588;-83
2022/10/15 06:03:24;;;;;;;1.92;1.83;;;;;;;;;;5057179;28;20666;-84
2022/10/15 06:05:53;;;;;;;2.15;1.92;;;;;;;;;;5057136;28;20320;-84
2022/10/15 06:08:20;;;;;;;2.10;2.00;;;;;;;;;;5057440;28;20453;-84
2022/10/15 06:10:50;;;;;;;1.92;1.83;;;;;;;;;;5057533;28;20216;-84
2022/10/15 06:13:17;;;;;;;2.67;1.60;;;;;;;;;;5057639;28;20205;-84
2022/10/15 06:15:46;;;;;;;1.45;1.35;;;;;;;;;;5056822;28;20312;-83
2022/10/15 06:18:15;;;;;;;1.80;1.70;;;;;;;;;;5056137;28;20221;-83
2022/10/15 06:20:42;;;;;;;1.27;1.27;;;;;;;;;;5057085;28;20210;-84
2022/10/15 06:23:10;;;;;;;1.80;1.70;;;;;;;;;;5056741;28;20677;-84
2022/10/15 06:25:38;;;;;;;2.05;1.95;;;;;;;;;;5056676;28;20289;-84
2022/10/15 06:28:08;;;;;;;2.20;2.00;;;;;;;;;;5056170;28;20231;-84
2022/10/15 06:30:36;;;;;;;2.35;1.95;;;;;;;;;;5056678;28;20209;-84
2022/10/15 06:33:04;;;;;;;1.83;1.73;;;;;;;;;;5056732;28;20285;-84
2022/10/15 06:35:33;;;;;;;2.78;2.58;;;;;;;;;;5056324;28;20225;-84
2022/10/15 06:38:01;;;;;;;5.20;3.05;;;;;;;;;;5056170;28;20303;-83
2022/10/15 06:40:29;;;;;;;2.90;2.70;;;;;;;;;;5056325;28;20308;-83
2022/10/15 06:43:02;;;;;;;2.65;2.45;;;;;;;;;;5056089;28;20206;-84
2022/10/15 06:45:31;;;;;;;1.90;1.80;;;;;;;;;;5056743;28;20311;-83
2022/10/15 06:47:58;;;;;;;1.70;1.60;;;;;;;;;;5056699;28;20285;-83
2022/10/15 06:50:26;;;;;;;1.80;1.70;;;;;;;;;;5060171;28;20237;-83
2022/10/15 06:52:54;;;;;;;2.35;2.13;;;;;;;;;;5057078;28;20216;-84
2022/10/15 06:55:21;;;;;;;2.20;2.10;;;;;;;;;;5055576;28;20578;-84
2022/10/15 06:57:50;;;;;;;1.70;1.60;;;;;;;;;;5056637;28;20499;-83
2022/10/15 07:00:17;;;;;;;1.85;1.60;;;;;;;;;;5057445;28;20202;-84
2022/10/15 07:02:46;;;;;;;1.50;1.40;;;;;;;;;;5057616;28;20197;-84
2022/10/15 07:05:14;;;;;;;1.30;1.20;;;;;;;;;;5056105;28;20252;-83
2022/10/15 07:07:41;;;;;;;1.33;1.23;;;;;;;;;;5057050;28;20244;-84
2022/10/15 07:10:09;;;;;;;1.30;1.30;;;;;;;;;;5055894;28;20214;-83
2022/10/15 07:12:37;;;;;;;1.17;1.17;;;;;;;;;;5056487;28;20288;-84
2022/10/15 07:15:06;;;;;;;1.60;1.50;;;;;;;;;;5056185;28;20312;-83
2022/10/15 07:17:34;;;;;;;1.70;1.60;;;;;;;;;;5057006;28;20217;-84
2022/10/15 07:20:03;;;;;;;1.55;1.45;;;;;;;;;;5053552;28;20201;-84
2022/10/15 07:22:30;;;;;;;1.38;1.33;;;;;;;;;;5055776;28;20274;-83
2022/10/15 07:24:58;;;;;;;1.70;1.60;;;;;;;;;;5056040;28;20602;-84
2022/10/15 07:27:26;;;;;;;2.30;2.20;;;;;;;;;;5054096;28;20201;-84
2022/10/15 07:29:53;;;;;;;3.17;2.88;;;;;;;;;;5054700;28;20761;-83
2022/10/15 07:32:21;;;;;;;3.50;3.25;;;;;;;;;;5054411;28;20292;-83
2022/10/15 07:34:48;;;;;;;3.40;3.20;;;;;;;;;;5053968;28;20228;-84
2022/10/15 07:37:17;;;;;;;2.08;1.92;;;;;;;;;;5053692;28;20289;-83
2022/10/15 07:39:44;;;;;;;1.90;1.80;;;;;;;;;;5054245;28;20267;-82
2022/10/15 07:42:12;;;;;;;1.55;1.45;;;;;;;;;;5055728;28;20270;-82
2022/10/15 07:44:39;;;;;;;1.73;1.63;;;;;;;;;;5055266;28;20221;-84
2022/10/15 07:47:07;;;;;;;1.75;1.65;;;;;;;;;;5057043;28;20284;-82
2022/10/15 07:49:36;;;;;;;1.42;1.33;;;;;;;;;;5056033;28;20292;-82
2022/10/15 07:52:03;;;;;;;1.17;1.15;;;;;;;;;;5055851;28;20233;-83
2022/10/15 07:54:34;;;;;;;1.35;1.35;;;;;;;;;;5056265;28;20309;-83
2022/10/15 07:57:01;;;;;;;1.25;1.20;;;;;;;;;;5056251;28;20288;-84
2022/10/15 07:59:29;;;;;;;1.10;1.10;;;;;;;;;;5055026;28;20507;-84
2022/10/15 08:01:56;;;;;;;1.65;1.55;;;;;;;;;;5055032;28;20241;-84
2022/10/15 08:04:24;;;;;;;1.25;1.25;;;;;;;;;;5055676;28;20308;-83
2022/10/15 08:06:51;;;;;;;1.40;1.30;;;;;;;;;;5055120;28;20216;-83
2022/10/15 08:09:19;;;;;;;1.10;1.10;;;;;;;;;;5054462;28;20289;-84
2022/10/15 08:11:48;;;;;;;1.90;1.80;;;;;;;;;;5054957;28;20292;-84
2022/10/15 08:14:16;;;;;;;2.65;2.45;;;;;;;;;;5054482;28;20715;-82
2022/10/15 08:16:44;;;;;;;2.30;2.10;;;;;;;;;;5053844;28;20208;-83
2022/10/15 08:19:11;;;;;;;2.35;2.25;;;;;;;;;;5053890;28;20721;-84
2022/10/15 08:21:38;;;;;;;1.80;1.70;;;;;;;;;;5054249;28;20244;-83
2022/10/15 08:24:07;;;;;;;2.08;1.98;;;;;;;;;;5054166;28;20308;-84
2022/10/15 08:26:34;;;;;;;2.67;2.28;;;;;;;;;;5053778;28;20214;-83
2022/10/15 08:29:03;;;;;;;2.35;2.17;;;;;;;;;;5057442;28;20200;-84
2022/10/15 08:31:31;;;;;;;2.00;1.90;;;;;;;;;;5057411;28;20650;-83
2022/10/15 08:34:00;;;;;;;2.22;2.05;;;;;;;;;;5056630;28;20201;-83
2022/10/15 08:36:28;;;;;;;1.80;1.70;;;;;;;;;;5057052;28;20293;-82
2022/10/15 08:38:55;;;;;;;1.92;1.83;;;;;;;;;;5056720;28;20236;-83
2022/10/15 08:41:32;;;;;;;2.78;2.58;;;;;;;;;;5057163;28;20296;-83
2022/10/15 08:44:00;;;;;;;4.25;2.42;;;;;;;;;;5057224;28;20668;-84
2022/10/15 08:46:35;;;;;;;2.03;1.92;;;;;;;;;;5059326;28;20288;-84
2022/10/15 08:49:03;;;;;;;2.00;1.90;;;;;;;;;;5059189;28;20232;-84
2022/10/15 08:51:38;;;;;;;2.00;1.90;;;;;;;;;;5059590;28;20204;-84
2022/10/15 08:54:07;;;;;;;2.45;2.22;;;;;;;;;;5057852;28;20221;-83
2022/10/15 08:56:38;;;;;;;2.65;2.45;;;;;;;;;;5038701;28;20690;-83
2022/10/15 08:59:17;;;;;;;3.08;2.88;;;;;;;;;;5038522;28;20222;-84
2022/10/15 09:01:52;;;;;;;2.22;2.10;;;;;;;;;;5039961;28;20214;-83
2022/10/15 09:04:27;;;;;;;2.72;2.53;;;;;;;;;;5039202;28;20218;-84
2022/10/15 09:07:00;;;;;;;3.10;2.88;;;;;;;;;;5054325;28;20212;-83
2022/10/15 09:09:32;;;;;;;3.20;2.97;;;;;;;;;;5058158;28;20274;-83
2022/10/15 09:12:06;;;;;;;3.08;2.80;;;;;;;;;;5058832;28;20206;-84
2022/10/15 09:14:36;;;;;;;2.55;2.35;;;;;;;;;;5056000;28;20221;-84
2022/10/15 09:17:15;;;;;;;2.00;1.90;;;;;;;;;;5057889;28;20301;-83
2022/10/15 09:19:44;;;;;;;1.60;1.50;;;;;;;;;;5057384;28;20328;-84
2022/10/15 09:22:14;;;;;;;2.38;2.28;;;;;;;;;;5057368;28;20273;-83
2022/10/15 09:24:42;;;;;;;1.98;1.88;;;;;;;;;;5055976;28;20231;-83
2022/10/15 09:27:12;;;;;;;2.38;2.20;;;;;;;;;;5056883;28;20289;-83
2022/10/15 09:29:44;;;;;;;2.15;2.05;;;;;;;;;;5057675;28;20203;-84
2022/10/15 09:32:19;;;;;;;2.25;2.10;;;;;;;;;;5057034;28;20255;-84
2022/10/15 09:34:53;;;;;;;1.80;1.70;;;;;;;;;;5056643;28;20225;-84
2022/10/15 09:37:27;;;;;;;2.00;1.90;;;;;;;;;;5057716;28;20205;-83
2022/10/15 09:40:16;;;;;;;1.77;1.67;;;;;;;;;;5056577;28;20262;-84
2022/10/15 09:42:44;;;;;;;1.90;1.80;;;;;;;;;;5056465;28;20202;-84
2022/10/15 09:45:14;;;;;;;1.73;1.63;;;;;;;;;;5056311;28;20260;-84
2022/10/15 09:47:45;;;;;;;2.85;2.65;;;;;;;;;;5056377;28;20255;-84
2022/10/15 09:50:14;;;;;;;3.63;2.17;;;;;;;;;;5053788;28;20285;-83
2022/10/15 09:53:03;;;;;;;2.13;1.90;;;;;;;;;;5053794;28;20297;-84
2022/10/15 09:55:37;;;;;;;2.03;1.80;;;;;;;;;;5053490;28;20308;-84
2022/10/15 09:58:08;;;;;;;2.78;2.58;;;;;;;;;;5053228;28;20311;-84
2022/10/15 10:00:58;;;;;;;1.55;1.45;;;;;;;;;;5053641;28;20222;-83
2022/10/15 10:03:30;;;;;;;1.98;1.83;;;;;;;;;;5053631;28;20194;-85
2022/10/15 10:06:05;;;;;;;1.45;1.35;;;;;;;;;;5053812;28;20229;-85
2022/10/15 10:08:37;;;;;;;1.55;1.45;;;;;;;;;;5053407;28;20581;-84
2022/10/15 10:11:08;;;;;;;1.50;1.40;;;;;;;;;;5053508;28;20213;-85
2022/10/15 10:13:40;;;;;;;1.45;1.35;;;;;;;;;;5053256;28;20206;-85
2022/10/15 10:16:10;;;;;;;1.60;1.50;;;;;;;;;;5053366;28;20232;-86
2022/10/15 10:18:40;;;;;;;1.90;1.17;;;;;;;;;;5053211;28;20668;-84
2022/10/15 10:21:23;;;;;;;1.40;1.30;;;;;;;;;;5053513;28;20210;-85
2022/10/15 10:23:50;;;;;;;1.80;1.25;;;;;;;;;;5052913;28;20201;-85
2022/10/15 10:26:18;;;;;;;1.25;1.17;;;;;;;;;;5053347;28;20297;-84
2022/10/15 10:28:50;;;;;;;1.60;1.50;;;;;;;;;;5052569;28;20677;-84
2022/10/15 10:31:17;;;;;;;1.20;1.20;;;;;;;;;;5052879;28;20284;-84
2022/10/15 10:33:49;;;;;;;2.25;1.20;;;;;;;;;;5052852;28;20652;-84
2022/10/15 10:36:25;;;;;;;1.35;1.25;;;;;;;;;;5052820;28;20289;-85
2022/10/15 10:39:00;;;;;;;1.30;1.20;;;;;;;;;;5052427;28;20281;-84
2022/10/15 10:41:49;;;;;;;0.93;0.93;;;;;;;;;;5052525;28;20203;-84
2022/10/15 10:44:23;;;;;;;0.80;0.80;;;;;;;;;;5052874;28;20222;-85
2022/10/15 10:47:12;;;;;;;0.80;0.80;;;;;;;;;;5052759;28;20206;-84
2022/10/15 10:49:43;;;;;;;0.60;0.60;;;;;;;;;;5051785;28;20580;-84
2022/10/15 10:52:22;;;;;;;0.80;0.80;;;;;;;;;;5052857;28;20193;-84
2022/10/15 10:54:58;;;;;;;0.80;0.80;;;;;;;;;;5052684;28;20232;-83
2022/10/15 10:57:39;;;;;;;0.80;0.80;;;;;;;;;;5052488;28;20552;-84
2022/10/15 11:00:11;;;;;;;0.70;0.70;;;;;;;;;;5052061;28;20217;-84
2022/10/15 11:02:42;;;;;;;0.90;0.90;;;;;;;;;;5052368;28;20285;-85
2022/10/15 11:05:12;;;;;;;1.05;0.90;;;;;;;;;;5052337;28;20226;-85
2022/10/15 11:07:47;;;;;;;1.30;1.20;;;;;;;;;;5052972;28;20194;-84
2022/10/15 11:10:21;;;;;;;1.75;1.50;;;;;;;;;;5052259;28;20403;-84
2022/10/15 11:13:06;;;;;;;0.98;0.90;;;;;;;;;;5052245;28;20252;-84
2022/10/15 11:15:43;;;;;;;0.82;0.75;;;;;;;;;;5052302;28;20225;-83
2022/10/15 11:18:37;;;;;;;3.67;1.90;;;;;;;;;;5052130;28;20193;-84
2022/10/15 11:21:17;;;;;;;1.02;0.90;;;;;;;;;;5052030;28;20316;-84
2022/10/15 11:24:00;;;;;;;1.40;0.98;;;;;;;;;;5052216;28;20209;-83
2022/10/15 11:26:41;;;;;;;1.58;1.45;;;;;;;;;;5052089;28;20208;-85
2022/10/15 11:29:13;;;;;;;0.80;0.80;;;;;;;;;;5051832;28;20204;-84
2022/10/15 11:31:47;;;;;;;0.80;0.80;;;;;;;;;;5052038;28;20301;-85
2022/10/15 11:34:30;;;;;;;0.60;0.60;;;;;;;;;;5052303;28;20221;-83
2022/10/15 11:37:14;;;;;;;0.63;0.63;;;;;;;;;;5052191;28;20244;-84
2022/10/15 11:40:02;;;;;;;0.80;0.80;;;;;;;;;;5051757;28;20221;-83
2022/10/15 11:42:35;;;;;;;0.90;0.70;;;;;;;;;;5051982;28;20665;-83
2022/10/15 11:45:38;;;;;;;1.00;1.00;;;;;;;;;;5052224;28;20225;-84
2022/10/15 11:48:13;;;;;;;0.73;0.73;;;;;;;;;;5051612;28;20287;-83
2022/10/15 11:50:45;;;;;;;0.77;0.77;;;;;;;;;;5052144;28;20197;-85
2022/10/15 11:53:49;;;;;;;0.60;0.60;;;;;;;;;;5052510;28;20216;-84
2022/10/15 11:56:20;;;;;;;0.75;0.75;;;;;;;;;;5052405;28;20204;-84
2022/10/15 11:58:51;;;;;;;0.60;0.60;;;;;;;;;;5052358;28;20589;-83
2022/10/15 12:01:23;;;;;;;0.80;0.80;;;;;;;;;;5053464;28;20229;-83
2022/10/15 12:03:55;;;;;;;0.90;0.90;;;;;;;;;;5056602;28;20200;-84
2022/10/15 12:06:27;;;;;;;0.80;0.80;;;;;;;;;;5056335;28;20201;-84
2022/10/15 12:08:56;;;;;;;0.98;0.80;;;;;;;;;;5058533;28;20292;-85
2022/10/15 12:11:35;;;;;;;0.82;0.82;;;;;;;;;;5060911;28;20237;-85
2022/10/15 12:14:11;;;;;;;0.90;0.90;;;;;;;;;;5056682;28;20285;-84
2022/10/15 12:16:44;;;;;;;0.60;0.60;;;;;;;;;;5056663;28;20201;-85
2022/10/15 12:19:16;;;;;;;0.80;0.80;;;;;;;;;;5056210;28;20213;-84
2022/10/15 12:22:10;;;;;;;0.57;0.57;;;;;;;;;;5056440;28;20208;-84
2022/10/15 12:24:55;;;;;;;0.75;0.75;;;;;;;;;;5056328;28;20218;-85
2022/10/15 12:27:33;;;;;;;0.60;0.60;;;;;;;;;;5055973;28;20240;-85
2022/10/15 12:30:31;;;;;;;0.70;0.70;;;;;;;;;;5056218;28;20202;-84
2022/10/15 12:32:58;;;;;;;0.50;0.50;;;;;;;;;;5033382;28;20633;-84
2022/10/15 12:35:35;;;;;;;0.60;0.60;;;;;;;;;;5056690;28;20305;-85
2022/10/15 12:38:18;;;;;;;0.60;0.60;;;;;;;;;;5056308;28;20660;-84
2022/10/15 12:40:55;;;;;;;0.60;0.60;;;;;;;;;;5056038;28;20220;-85
2022/10/15 12:43:23;;;;;;;0.63;0.63;;;;;;;;;;5055798;28;20243;-85
2022/10/15 12:45:54;;;;;;;0.52;0.52;;;;;;;;;;5056482;28;20213;-85
2022/10/15 12:48:33;;;;;;;0.60;0.60;;;;;;;;;;5055220;28;20292;-84
2022/10/15 12:51:40;;;;;;;0.50;0.50;;;;;;;;;;5056555;28;20563;-85
2022/10/15 12:54:39;;;;;;;0.50;0.50;;;;;;;;;;5052163;28;20312;-84
2022/10/15 12:57:52;;;;;;;0.70;0.70;;;;;;;;;;5056268;28;20256;-84
2022/10/15 13:00:36;;;;;;;0.60;0.60;;;;;;;;;;5055494;28;20275;-84
2022/10/15 13:03:32;;;;;;;2.47;0.70;;;;;;;;;;5055713;28;20216;-84
2022/10/15 13:06:26;;;;;;;0.80;0.80;;;;;;;;;;5055409;28;20231;-84
2022/10/15 13:08:56;;;;;;;0.70;0.70;;;;;;;;;;5055125;28;20582;-84
2022/10/15 13:11:27;;;;;;;0.70;0.70;;;;;;;;;;5055013;28;20205;-84
2022/10/15 13:14:01;;;;;;;0.75;0.70;;;;;;;;;;5054542;28;20237;-85
2022/10/15 13:16:29;;;;;;;0.60;0.60;;;;;;;;;;5055382;28;20205;-84
2022/10/15 13:18:57;;;;;;;0.50;0.50;;;;;;;;;;5054420;28;20206;-84
2022/10/15 13:21:50;;;;;;;0.77;0.77;;;;;;;;;;5054886;28;20218;-84
2022/10/15 13:24:21;;;;;;;0.50;0.50;;;;;;;;;;5055998;28;20229;-85
2022/10/15 13:26:48;;;;;;;0.65;0.65;;;;;;;;;;5055130;28;20206;-85
2022/10/15 13:29:20;;;;;;;0.55;0.55;;;;;;;;;;5055490;28;20293;-85
2022/10/15 13:31:47;;;;;;;1.63;0.70;;;;;;;;;;5055942;28;20202;-84
2022/10/15 13:34:27;;;;;;;0.70;0.70;;;;;;;;;;5055618;28;20224;-85
2022/10/15 13:36:56;;;;;;;0.50;0.50;;;;;;;;;;5055192;28;20209;-85
2022/10/15 13:39:30;;;;;;;0.68;0.68;;;;;;;;;;5054119;28;20281;-84
2022/10/15 13:42:09;;;;;;;0.80;0.80;;;;;;;;;;5055166;28;20229;-85
2022/10/15 13:44:38;;;;;;;0.60;0.60;;;;;;;;;;5054632;28;20768;-84
2022/10/15 13:47:25;;;;;;;0.52;0.52;;;;;;;;;;5055247;28;20343;-84
2022/10/15 13:50:08;;;;;;;1.23;0.63;;;;;;;;;;5054547;28;20194;-84
2022/10/15 13:52:40;;;;;;;0.68;0.68;;;;;;;;;;5054755;28;20204;-84
2022/10/15 13:55:19;;;;;;;0.90;0.90;;;;;;;;;;5055110;28;20225;-84
2022/10/15 13:57:47;;;;;;;0.55;0.55;;;;;;;;;;5054242;28;20661;-84
2022/10/15 14:00:26;;;;;;;0.60;0.60;;;;;;;;;;5054529;28;20292;-84
2022/10/15 14:03:20;;;;;;;1.00;1.00;;;;;;;;;;5057021;28;20221;-84
2022/10/15 14:05:50;;;;;;;1.15;0.98;;;;;;;;;;5055237;28;20225;-83
2022/10/15 14:08:23;;;;;;;1.70;0.90;;;;;;;;;;5054134;28;20251;-83
2022/10/15 14:10:52;;;;;;;1.55;0.80;;;;;;;;;;5054451;28;20296;-84
2022/10/15 14:13:20;;;;;;;0.80;0.80;;;;;;;;;;5054692;28;20206;-85
2022/10/15 14:16:13;;;;;;;0.70;0.70;;;;;;;;;;5066046;28;20222;-85
2022/10/15 14:18:44;;;;;;;0.82;0.82;;;;;;;;;;5065004;28;20209;-84
2022/10/15 14:21:12;;;;;;;1.75;0.85;;;;;;;;;;5065781;28;20316;-84
2022/10/15 14:23:41;;;;;;;0.73;0.73;;;;;;;;;;5065972;28;20216;-85
2022/10/15 14:26:10;;;;;;;0.75;0.75;;;;;;;;;;5065653;28;20650;-84
2022/10/15 14:28:38;;;;;;;0.95;0.95;;;;;;;;;;5063691;28;20209;-85
2022/10/15 14:31:08;;;;;;;0.93;0.80;;;;;;;;;;5062889;28;20208;-84
2022/10/15 14:33:43;;;;;;;1.10;1.10;;;;;;;;;;5061847;28;20274;-85
2022/10/15 14:36:26;;;;;;;0.88;0.88;;;;;;;;;;5061818;28;20232;-84
2022/10/15 14:38:55;;;;;;;2.20;1.90;;;;;;;;;;5061190;28;20201;-84
2022/10/15 14:41:30;;;;;;;2.67;2.50;;;;;;;;;;5062175;28;20245;-85
2022/10/15 14:44:03;;;;;;;2.70;2.50;;;;;;;;;;5061337;28;20233;-86
2022/10/15 14:46:39;;;;;;;5.63;5.13;;;;;;;;;;5060249;28;20240;-84
2022/10/15 14:49:18;;;;;;;2.05;1.95;;;;;;;;;;5060349;28;20205;-85
2022/10/15 14:51:51;;;;;;;1.73;1.63;;;;;;;;;;5060844;28;20202;-85
2022/10/15 14:54:23;;;;;;;1.85;1.42;;;;;;;;;;5059834;28;20217;-84
2022/10/15 14:56:52;;;;;;;0.90;0.90;;;;;;;;;;5060509;28;20647;-84
2022/10/15 14:59:20;;;;;;;1.20;1.20;;;;;;;;;;5060378;28;20216;-84
2022/10/15 15:01:58;;;;;;;1.00;1.00;;;;;;;;;;5059834;28;20221;-84
2022/10/15 15:05:04;;;;;;;1.08;1.08;;;;;;;;;;5059135;28;20228;-85
2022/10/15 15:07:32;;;;;;;0.90;0.90;;;;;;;;;;5032886;28;20620;-84
2022/10/15 15:09:59;;;;;;;1.00;1.00;;;;;;;;;;5039383;28;20306;-84
2022/10/15 15:12:29;;;;;;;1.35;1.35;;;;;;;;;;5039296;28;20229;-84